sensor_id;sensor_type;location;lat;lon;timestamp;temperature;humidity
44705;DHT22;30431;48.520;9.046;2024-02-26T00:02:20;5.80;98.60
44705;DHT22;30431;48.520;9.046;2024-02-26T00:04:47;5.80;98.80
44705;DHT22;30431;48.520;9.046;2024-02-26T00:07:14;5.80;98.40
44705;DHT22;30431;48.520;9.046;2024-02-26T00:09:41;5.90;98.20
44705;DHT22;30431;48.520;9.046;2024-02-26T00:12:08;5.80;98.20
44705;DHT22;30431;48.520;9.046;2024-02-26T00:14:36;5.80;99.00
44705;DHT22;30431;48.520;9.046;2024-02-26T00:17:03;5.90;99.30
44705;DHT22;30431;48.520;9.046;2024-02-26T00:19:30;5.90;99.10
44705;DHT22;30431;48.520;9.046;2024-02-26T00:21:57;5.90;98.80
44705;DHT22;30431;48.520;9.046;2024-02-26T00:24:26;5.90;98.60
44705;DHT22;30431;48.520;9.046;2024-02-26T00:26:53;5.90;99.10
44705;DHT22;30431;48.520;9.046;2024-02-26T00:29:24;6.00;98.60
44705;DHT22;30431;48.520;9.046;2024-02-26T00:31:55;6.00;98.70
44705;DHT22;30431;48.520;9.046;2024-02-26T00:34:25;6.00;99.10
44705;DHT22;30431;48.520;9.046;2024-02-26T00:36:54;6.00;99.20
44705;DHT22;30431;48.520;9.046;2024-02-26T00:39:22;6.10;99.40
44705;DHT22;30431;48.520;9.046;2024-02-26T00:41:51;6.10;98.90
44705;DHT22;30431;48.520;9.046;2024-02-26T00:44:21;6.00;98.90
44705;DHT22;30431;48.520;9.046;2024-02-26T00:46:48;6.10;98.90
44705;DHT22;30431;48.520;9.046;2024-02-26T00:49:15;6.20;99.60
44705;DHT22;30431;48.520;9.046;2024-02-26T00:51:42;6.30;99.00
44705;DHT22;30431;48.520;9.046;2024-02-26T00:54:09;6.40;98.40
44705;DHT22;30431;48.520;9.046;2024-02-26T00:56:36;6.30;98.30
44705;DHT22;30431;48.520;9.046;2024-02-26T00:59:06;6.30;99.50
44705;DHT22;30431;48.520;9.046;2024-02-26T01:01:33;6.20;99.50
44705;DHT22;30431;48.520;9.046;2024-02-26T01:04:00;6.20;99.70
44705;DHT22;30431;48.520;9.046;2024-02-26T01:06:27;6.30;99.30
44705;DHT22;30431;48.520;9.046;2024-02-26T01:08:54;6.30;99.10
44705;DHT22;30431;48.520;9.046;2024-02-26T01:11:23;6.20;99.30
44705;DHT22;30431;48.520;9.046;2024-02-26T01:13:53;6.20;99.50
44705;DHT22;30431;48.520;9.046;2024-02-26T01:16:26;6.10;99.20
44705;DHT22;30431;48.520;9.046;2024-02-26T01:18:55;6.10;99.90
44705;DHT22;30431;48.520;9.046;2024-02-26T01:21:25;6.20;99.80
44705;DHT22;30431;48.520;9.046;2024-02-26T01:23:53;6.20;99.90
44705;DHT22;30431;48.520;9.046;2024-02-26T01:26:20;6.10;99.90
44705;DHT22;30431;48.520;9.046;2024-02-26T01:28:48;6.20;99.90
44705;DHT22;30431;48.520;9.046;2024-02-26T01:31:15;6.20;99.90
44705;DHT22;30431;48.520;9.046;2024-02-26T01:33:42;6.10;99.90
44705;DHT22;30431;48.520;9.046;2024-02-26T01:36:10;6.20;99.90
44705;DHT22;30431;48.520;9.046;2024-02-26T01:38:37;6.00;99.90
44705;DHT22;30431;48.520;9.046;2024-02-26T01:41:04;6.00;99.90
44705;DHT22;30431;48.520;9.046;2024-02-26T01:43:31;6.10;99.90
44705;DHT22;30431;48.520;9.046;2024-02-26T01:45:58;6.10;99.90
44705;DHT22;30431;48.520;9.046;2024-02-26T01:48:25;6.10;99.90
44705;DHT22;30431;48.520;9.046;2024-02-26T01:50:53;6.20;99.90
44705;DHT22;30431;48.520;9.046;2024-02-26T01:53:22;6.20;99.90
44705;DHT22;30431;48.520;9.046;2024-02-26T01:55:49;6.40;99.90
44705;DHT22;30431;48.520;9.046;2024-02-26T01:58:19;6.40;99.90
44705;DHT22;30431;48.520;9.046;2024-02-26T02:00:47;6.40;99.90
44705;DHT22;30431;48.520;9.046;2024-02-26T02:03:14;6.50;99.50
44705;DHT22;30431;48.520;9.046;2024-02-26T02:05:46;6.50;98.90
44705;DHT22;30431;48.520;9.046;2024-02-26T02:08:13;6.50;98.60
44705;DHT22;30431;48.520;9.046;2024-02-26T02:10:44;6.50;98.10
44705;DHT22;30431;48.520;9.046;2024-02-26T02:13:14;6.60;98.90
44705;DHT22;30431;48.520;9.046;2024-02-26T02:15:43;6.60;98.60
44705;DHT22;30431;48.520;9.046;2024-02-26T02:18:13;6.70;98.60
44705;DHT22;30431;48.520;9.046;2024-02-26T02:20:40;6.70;98.20
44705;DHT22;30431;48.520;9.046;2024-02-26T02:23:07;6.70;97.80
44705;DHT22;30431;48.520;9.046;2024-02-26T02:25:34;6.80;97.10
44705;DHT22;30431;48.520;9.046;2024-02-26T02:28:03;6.90;96.80
44705;DHT22;30431;48.520;9.046;2024-02-26T02:30:33;6.80;97.20
44705;DHT22;30431;48.520;9.046;2024-02-26T02:33:02;6.80;97.70
44705;DHT22;30431;48.520;9.046;2024-02-26T02:35:30;6.90;97.80
44705;DHT22;30431;48.520;9.046;2024-02-26T02:37:57;6.90;97.80
44705;DHT22;30431;48.520;9.046;2024-02-26T02:40:27;6.90;97.70
44705;DHT22;30431;48.520;9.046;2024-02-26T02:42:54;7.00;98.00
44705;DHT22;30431;48.520;9.046;2024-02-26T02:45:23;6.90;97.30
44705;DHT22;30431;48.520;9.046;2024-02-26T02:47:50;6.90;97.20
44705;DHT22;30431;48.520;9.046;2024-02-26T02:50:17;6.90;96.90
44705;DHT22;30431;48.520;9.046;2024-02-26T02:52:46;7.00;97.10
44705;DHT22;30431;48.520;9.046;2024-02-26T02:55:14;6.90;97.00
44705;DHT22;30431;48.520;9.046;2024-02-26T02:57:41;7.00;97.00
44705;DHT22;30431;48.520;9.046;2024-02-26T03:00:10;6.90;96.00
44705;DHT22;30431;48.520;9.046;2024-02-26T03:02:39;6.90;95.40
44705;DHT22;30431;48.520;9.046;2024-02-26T03:05:06;6.90;96.20
44705;DHT22;30431;48.520;9.046;2024-02-26T03:07:34;6.80;95.60
44705;DHT22;30431;48.520;9.046;2024-02-26T03:10:05;6.90;95.30
44705;DHT22;30431;48.520;9.046;2024-02-26T03:12:34;7.00;96.40
44705;DHT22;30431;48.520;9.046;2024-02-26T03:15:03;6.90;96.40
44705;DHT22;30431;48.520;9.046;2024-02-26T03:17:31;6.90;96.90
44705;DHT22;30431;48.520;9.046;2024-02-26T03:20:00;6.90;98.00
44705;DHT22;30431;48.520;9.046;2024-02-26T03:22:28;6.90;97.80
44705;DHT22;30431;48.520;9.046;2024-02-26T03:24:57;7.00;97.40
44705;DHT22;30431;48.520;9.046;2024-02-26T03:27:24;7.10;97.00
44705;DHT22;30431;48.520;9.046;2024-02-26T03:29:54;7.00;97.80
44705;DHT22;30431;48.520;9.046;2024-02-26T03:32:21;6.90;98.50
44705;DHT22;30431;48.520;9.046;2024-02-26T03:34:48;6.80;98.50
44705;DHT22;30431;48.520;9.046;2024-02-26T03:37:15;6.80;99.30
44705;DHT22;30431;48.520;9.046;2024-02-26T03:39:44;6.70;98.50
44705;DHT22;30431;48.520;9.046;2024-02-26T03:42:13;6.80;98.80
44705;DHT22;30431;48.520;9.046;2024-02-26T03:44:40;7.00;98.10
44705;DHT22;30431;48.520;9.046;2024-02-26T03:47:07;6.90;98.40
44705;DHT22;30431;48.520;9.046;2024-02-26T03:49:36;7.00;97.80
44705;DHT22;30431;48.520;9.046;2024-02-26T03:52:04;7.00;97.60
44705;DHT22;30431;48.520;9.046;2024-02-26T03:54:30;7.00;98.40
44705;DHT22;30431;48.520;9.046;2024-02-26T03:57:00;6.90;99.30
44705;DHT22;30431;48.520;9.046;2024-02-26T03:59:29;6.80;99.30
44705;DHT22;30431;48.520;9.046;2024-02-26T04:01:56;6.90;99.00
44705;DHT22;30431;48.520;9.046;2024-02-26T04:04:23;6.90;99.30
44705;DHT22;30431;48.520;9.046;2024-02-26T04:06:50;6.90;99.40
44705;DHT22;30431;48.520;9.046;2024-02-26T04:09:17;6.90;99.20
44705;DHT22;30431;48.520;9.046;2024-02-26T04:11:44;6.90;98.20
44705;DHT22;30431;48.520;9.046;2024-02-26T04:14:14;7.00;98.40
44705;DHT22;30431;48.520;9.046;2024-02-26T04:16:43;7.00;97.20
44705;DHT22;30431;48.520;9.046;2024-02-26T04:19:10;7.00;97.70
44705;DHT22;30431;48.520;9.046;2024-02-26T04:21:41;7.10;97.60
44705;DHT22;30431;48.520;9.046;2024-02-26T04:24:11;7.00;97.30
44705;DHT22;30431;48.520;9.046;2024-02-26T04:26:37;6.90;98.80
44705;DHT22;30431;48.520;9.046;2024-02-26T04:29:04;6.90;98.40
44705;DHT22;30431;48.520;9.046;2024-02-26T04:31:31;6.90;98.00
44705;DHT22;30431;48.520;9.046;2024-02-26T04:33:59;7.00;98.20
44705;DHT22;30431;48.520;9.046;2024-02-26T04:36:26;7.00;98.10
44705;DHT22;30431;48.520;9.046;2024-02-26T04:38:54;7.10;98.50
44705;DHT22;30431;48.520;9.046;2024-02-26T04:41:24;6.90;98.50
44705;DHT22;30431;48.520;9.046;2024-02-26T04:43:51;6.80;98.60
44705;DHT22;30431;48.520;9.046;2024-02-26T04:46:17;6.80;99.30
44705;DHT22;30431;48.520;9.046;2024-02-26T04:48:50;6.80;98.70
44705;DHT22;30431;48.520;9.046;2024-02-26T04:51:20;6.90;99.90
44705;DHT22;30431;48.520;9.046;2024-02-26T04:53:47;6.90;99.90
44705;DHT22;30431;48.520;9.046;2024-02-26T04:56:14;6.90;99.90
44705;DHT22;30431;48.520;9.046;2024-02-26T04:58:44;7.00;99.90
44705;DHT22;30431;48.520;9.046;2024-02-26T05:01:13;7.00;99.80
44705;DHT22;30431;48.520;9.046;2024-02-26T05:03:43;7.00;99.90
44705;DHT22;30431;48.520;9.046;2024-02-26T05:06:10;7.10;99.90
44705;DHT22;30431;48.520;9.046;2024-02-26T05:08:40;7.10;99.90
44705;DHT22;30431;48.520;9.046;2024-02-26T05:11:13;7.00;99.90
44705;DHT22;30431;48.520;9.046;2024-02-26T05:13:40;6.90;99.90
44705;DHT22;30431;48.520;9.046;2024-02-26T05:16:07;7.00;99.90
44705;DHT22;30431;48.520;9.046;2024-02-26T05:18:34;7.00;99.90
44705;DHT22;30431;48.520;9.046;2024-02-26T05:21:02;7.10;99.90
44705;DHT22;30431;48.520;9.046;2024-02-26T05:23:30;6.90;99.90
44705;DHT22;30431;48.520;9.046;2024-02-26T05:25:59;6.80;99.90
44705;DHT22;30431;48.520;9.046;2024-02-26T05:28:28;6.80;99.90
44705;DHT22;30431;48.520;9.046;2024-02-26T05:30:57;6.80;99.90
44705;DHT22;30431;48.520;9.046;2024-02-26T05:33:25;6.80;99.90
44705;DHT22;30431;48.520;9.046;2024-02-26T05:35:52;6.70;99.90
44705;DHT22;30431;48.520;9.046;2024-02-26T05:38:19;6.70;99.90
44705;DHT22;30431;48.520;9.046;2024-02-26T05:40:46;6.60;99.90
44705;DHT22;30431;48.520;9.046;2024-02-26T05:43:13;6.50;99.90
44705;DHT22;30431;48.520;9.046;2024-02-26T05:45:42;6.50;99.90
44705;DHT22;30431;48.520;9.046;2024-02-26T05:48:11;6.50;99.90
44705;DHT22;30431;48.520;9.046;2024-02-26T05:50:39;6.30;99.90
44705;DHT22;30431;48.520;9.046;2024-02-26T05:53:05;6.20;99.90
44705;DHT22;30431;48.520;9.046;2024-02-26T05:55:33;6.00;99.90
44705;DHT22;30431;48.520;9.046;2024-02-26T05:58:02;5.90;99.90
44705;DHT22;30431;48.520;9.046;2024-02-26T06:00:29;5.90;99.90
44705;DHT22;30431;48.520;9.046;2024-02-26T06:02:56;5.90;99.90
44705;DHT22;30431;48.520;9.046;2024-02-26T06:05:24;5.90;99.90
44705;DHT22;30431;48.520;9.046;2024-02-26T06:07:51;6.00;99.90
44705;DHT22;30431;48.520;9.046;2024-02-26T06:10:23;6.00;99.90
44705;DHT22;30431;48.520;9.046;2024-02-26T06:12:52;6.00;99.90
44705;DHT22;30431;48.520;9.046;2024-02-26T06:15:19;6.00;99.90
44705;DHT22;30431;48.520;9.046;2024-02-26T06:17:48;6.10;99.90
44705;DHT22;30431;48.520;9.046;2024-02-26T06:20:18;6.00;99.90
44705;DHT22;30431;48.520;9.046;2024-02-26T06:22:45;5.90;99.90
44705;DHT22;30431;48.520;9.046;2024-02-26T06:25:14;5.90;99.90
44705;DHT22;30431;48.520;9.046;2024-02-26T06:27:43;5.80;99.90
44705;DHT22;30431;48.520;9.046;2024-02-26T06:30:11;5.90;99.90
44705;DHT22;30431;48.520;9.046;2024-02-26T06:32:38;5.90;99.90
44705;DHT22;30431;48.520;9.046;2024-02-26T06:35:12;5.80;99.90
44705;DHT22;30431;48.520;9.046;2024-02-26T06:37:42;6.20;99.90
44705;DHT22;30431;48.520;9.046;2024-02-26T06:40:09;6.90;99.90
44705;DHT22;30431;48.520;9.046;2024-02-26T06:42:36;6.90;99.90
44705;DHT22;30431;48.520;9.046;2024-02-26T06:45:07;6.90;99.90
44705;DHT22;30431;48.520;9.046;2024-02-26T06:47:35;6.90;99.90
44705;DHT22;30431;48.520;9.046;2024-02-26T06:50:02;6.80;99.90
44705;DHT22;30431;48.520;9.046;2024-02-26T06:52:32;6.70;99.90
44705;DHT22;30431;48.520;9.046;2024-02-26T06:55:02;6.80;99.90
44705;DHT22;30431;48.520;9.046;2024-02-26T06:57:29;6.80;99.90
44705;DHT22;30431;48.520;9.046;2024-02-26T06:59:58;6.80;99.90
44705;DHT22;30431;48.520;9.046;2024-02-26T07:02:26;7.00;99.90
44705;DHT22;30431;48.520;9.046;2024-02-26T07:04:53;7.10;99.90
44705;DHT22;30431;48.520;9.046;2024-02-26T07:07:22;7.20;99.90
44705;DHT22;30431;48.520;9.046;2024-02-26T07:09:52;7.20;99.90
44705;DHT22;30431;48.520;9.046;2024-02-26T07:12:19;7.20;99.90
44705;DHT22;30431;48.520;9.046;2024-02-26T07:14:49;7.10;99.90
44705;DHT22;30431;48.520;9.046;2024-02-26T07:17:17;7.10;99.90
44705;DHT22;30431;48.520;9.046;2024-02-26T07:19:44;7.10;99.90
44705;DHT22;30431;48.520;9.046;2024-02-26T07:22:11;7.30;99.90
44705;DHT22;30431;48.520;9.046;2024-02-26T07:24:38;7.40;99.90
44705;DHT22;30431;48.520;9.046;2024-02-26T07:27:05;7.50;99.90
44705;DHT22;30431;48.520;9.046;2024-02-26T07:29:32;7.70;99.90
44705;DHT22;30431;48.520;9.046;2024-02-26T07:32:00;7.80;99.90
44705;DHT22;30431;48.520;9.046;2024-02-26T07:34:26;7.80;99.90
44705;DHT22;30431;48.520;9.046;2024-02-26T07:36:57;7.90;99.90
44705;DHT22;30431;48.520;9.046;2024-02-26T07:39:24;8.00;99.90
44705;DHT22;30431;48.520;9.046;2024-02-26T07:41:53;8.00;99.90
44705;DHT22;30431;48.520;9.046;2024-02-26T07:44:21;7.70;99.90
44705;DHT22;30431;48.520;9.046;2024-02-26T07:46:48;8.00;99.90
44705;DHT22;30431;48.520;9.046;2024-02-26T07:49:17;8.20;99.90
44705;DHT22;30431;48.520;9.046;2024-02-26T07:51:46;8.40;99.90
44705;DHT22;30431;48.520;9.046;2024-02-26T07:54:15;8.30;99.90
44705;DHT22;30431;48.520;9.046;2024-02-26T07:56:43;8.30;99.90
44705;DHT22;30431;48.520;9.046;2024-02-26T07:59:12;8.40;99.90
44705;DHT22;30431;48.520;9.046;2024-02-26T08:01:44;8.60;99.90
44705;DHT22;30431;48.520;9.046;2024-02-26T08:04:21;8.80;99.90
44705;DHT22;30431;48.520;9.046;2024-02-26T08:06:49;8.80;99.90
44705;DHT22;30431;48.520;9.046;2024-02-26T08:09:16;8.80;99.90
44705;DHT22;30431;48.520;9.046;2024-02-26T08:11:43;8.80;99.90
44705;DHT22;30431;48.520;9.046;2024-02-26T08:14:10;8.80;99.90
44705;DHT22;30431;48.520;9.046;2024-02-26T08:16:37;8.70;99.90
44705;DHT22;30431;48.520;9.046;2024-02-26T08:19:04;8.70;99.90
44705;DHT22;30431;48.520;9.046;2024-02-26T08:21:31;8.80;99.90
44705;DHT22;30431;48.520;9.046;2024-02-26T08:24:01;8.80;99.90
44705;DHT22;30431;48.520;9.046;2024-02-26T08:26:28;8.80;99.90
44705;DHT22;30431;48.520;9.046;2024-02-26T08:28:55;8.90;99.90
44705;DHT22;30431;48.520;9.046;2024-02-26T08:31:22;8.90;99.80
44705;DHT22;30431;48.520;9.046;2024-02-26T08:33:50;8.90;99.80
44705;DHT22;30431;48.520;9.046;2024-02-26T08:36:17;9.00;99.90
44705;DHT22;30431;48.520;9.046;2024-02-26T08:38:47;9.10;99.30
44705;DHT22;30431;48.520;9.046;2024-02-26T08:41:14;9.20;99.80
44705;DHT22;30431;48.520;9.046;2024-02-26T08:43:43;9.40;99.30
44705;DHT22;30431;48.520;9.046;2024-02-26T08:46:12;9.50;99.20
44705;DHT22;30431;48.520;9.046;2024-02-26T08:48:42;9.50;98.00
44705;DHT22;30431;48.520;9.046;2024-02-26T08:51:12;9.40;98.10
44705;DHT22;30431;48.520;9.046;2024-02-26T08:53:40;9.30;98.10
44705;DHT22;30431;48.520;9.046;2024-02-26T08:56:10;9.00;98.80
44705;DHT22;30431;48.520;9.046;2024-02-26T08:58:45;8.90;99.40
44705;DHT22;30431;48.520;9.046;2024-02-26T09:01:18;9.10;99.80
44705;DHT22;30431;48.520;9.046;2024-02-26T09:03:45;9.20;99.50
44705;DHT22;30431;48.520;9.046;2024-02-26T09:06:14;9.40;98.90
44705;DHT22;30431;48.520;9.046;2024-02-26T09:08:42;9.30;99.20
44705;DHT22;30431;48.520;9.046;2024-02-26T09:11:09;9.50;99.20
44705;DHT22;30431;48.520;9.046;2024-02-26T09:13:37;9.50;99.60
44705;DHT22;30431;48.520;9.046;2024-02-26T09:16:05;9.60;99.70
44705;DHT22;30431;48.520;9.046;2024-02-26T09:18:32;9.80;99.40
44705;DHT22;30431;48.520;9.046;2024-02-26T09:20:59;9.80;99.20
44705;DHT22;30431;48.520;9.046;2024-02-26T09:23:30;9.80;99.40
44705;DHT22;30431;48.520;9.046;2024-02-26T09:25:57;9.80;99.20
44705;DHT22;30431;48.520;9.046;2024-02-26T09:28:24;9.80;99.50
44705;DHT22;30431;48.520;9.046;2024-02-26T09:30:51;9.80;99.30
44705;DHT22;30431;48.520;9.046;2024-02-26T09:33:21;10.10;99.40
44705;DHT22;30431;48.520;9.046;2024-02-26T09:35:48;10.20;99.30
44705;DHT22;30431;48.520;9.046;2024-02-26T09:38:16;10.60;99.00
44705;DHT22;30431;48.520;9.046;2024-02-26T09:40:43;10.90;98.00
44705;DHT22;30431;48.520;9.046;2024-02-26T09:43:14;11.10;97.60
44705;DHT22;30431;48.520;9.046;2024-02-26T09:45:42;11.10;97.10
44705;DHT22;30431;48.520;9.046;2024-02-26T09:48:10;11.40;97.30
44705;DHT22;30431;48.520;9.046;2024-02-26T09:50:41;11.80;96.80
44705;DHT22;30431;48.520;9.046;2024-02-26T09:53:13;12.10;94.80
44705;DHT22;30431;48.520;9.046;2024-02-26T09:55:41;12.30;92.90
44705;DHT22;30431;48.520;9.046;2024-02-26T09:58:10;12.50;92.80
44705;DHT22;30431;48.520;9.046;2024-02-26T10:00:38;12.60;92.30
44705;DHT22;30431;48.520;9.046;2024-02-26T10:03:09;12.70;91.30
44705;DHT22;30431;48.520;9.046;2024-02-26T10:05:40;12.70;86.30
44705;DHT22;30431;48.520;9.046;2024-02-26T10:08:11;12.80;87.60
44705;DHT22;30431;48.520;9.046;2024-02-26T10:10:39;12.90;84.50
44705;DHT22;30431;48.520;9.046;2024-02-26T10:13:08;13.00;81.00
44705;DHT22;30431;48.520;9.046;2024-02-26T10:15:37;13.10;80.10
44705;DHT22;30431;48.520;9.046;2024-02-26T10:18:07;13.10;80.10
44705;DHT22;30431;48.520;9.046;2024-02-26T10:20:34;13.10;79.00
44705;DHT22;30431;48.520;9.046;2024-02-26T10:23:05;13.10;79.30
44705;DHT22;30431;48.520;9.046;2024-02-26T10:25:32;12.80;80.90
44705;DHT22;30431;48.520;9.046;2024-02-26T10:28:02;12.70;82.00
44705;DHT22;30431;48.520;9.046;2024-02-26T10:30:36;12.90;80.90
44705;DHT22;30431;48.520;9.046;2024-02-26T10:33:04;13.00;79.20
44705;DHT22;30431;48.520;9.046;2024-02-26T10:35:35;13.20;78.20
44705;DHT22;30431;48.520;9.046;2024-02-26T10:38:06;13.40;77.60
44705;DHT22;30431;48.520;9.046;2024-02-26T10:40:33;13.60;78.50
44705;DHT22;30431;48.520;9.046;2024-02-26T10:43:03;13.60;76.90
44705;DHT22;30431;48.520;9.046;2024-02-26T10:45:32;13.70;79.40
44705;DHT22;30431;48.520;9.046;2024-02-26T10:48:03;13.90;78.60
44705;DHT22;30431;48.520;9.046;2024-02-26T10:50:31;13.90;79.50
44705;DHT22;30431;48.520;9.046;2024-02-26T10:53:02;14.00;78.50
44705;DHT22;30431;48.520;9.046;2024-02-26T10:55:31;14.00;78.50
44705;DHT22;30431;48.520;9.046;2024-02-26T10:58:04;13.90;79.50
44705;DHT22;30431;48.520;9.046;2024-02-26T11:00:36;13.70;78.20
44705;DHT22;30431;48.520;9.046;2024-02-26T11:03:09;13.70;78.80
44705;DHT22;30431;48.520;9.046;2024-02-26T11:05:41;13.90;77.70
44705;DHT22;30431;48.520;9.046;2024-02-26T11:08:11;13.80;75.80
44705;DHT22;30431;48.520;9.046;2024-02-26T11:10:39;13.90;77.60
44705;DHT22;30431;48.520;9.046;2024-02-26T11:13:09;13.70;75.10
44705;DHT22;30431;48.520;9.046;2024-02-26T11:15:40;13.60;75.50
44705;DHT22;30431;48.520;9.046;2024-02-26T11:18:13;13.70;75.10
44705;DHT22;30431;48.520;9.046;2024-02-26T11:20:44;13.70;75.30
44705;DHT22;30431;48.520;9.046;2024-02-26T11:23:15;13.70;75.00
44705;DHT22;30431;48.520;9.046;2024-02-26T11:25:47;13.70;75.20
44705;DHT22;30431;48.520;9.046;2024-02-26T11:28:17;13.50;79.00
44705;DHT22;30431;48.520;9.046;2024-02-26T11:30:48;13.90;78.80
44705;DHT22;30431;48.520;9.046;2024-02-26T11:33:16;14.20;77.40
44705;DHT22;30431;48.520;9.046;2024-02-26T11:35:43;14.50;74.60
44705;DHT22;30431;48.520;9.046;2024-02-26T11:38:16;14.50;73.80
44705;DHT22;30431;48.520;9.046;2024-02-26T11:40:44;14.80;74.20
44705;DHT22;30431;48.520;9.046;2024-02-26T11:43:14;15.00;74.30
44705;DHT22;30431;48.520;9.046;2024-02-26T11:48:21;15.20;71.50
44705;DHT22;30431;48.520;9.046;2024-02-26T11:50:53;15.00;71.70
44705;DHT22;30431;48.520;9.046;2024-02-26T11:53:25;15.00;72.80
44705;DHT22;30431;48.520;9.046;2024-02-26T11:59:09;14.90;71.70
44705;DHT22;30431;48.520;9.046;2024-02-26T12:04:18;14.80;73.70
44705;DHT22;30431;48.520;9.046;2024-02-26T12:09:42;15.10;73.30
44705;DHT22;30431;48.520;9.046;2024-02-26T12:12:19;15.60;70.20
44705;DHT22;30431;48.520;9.046;2024-02-26T12:14:52;15.70;70.90
44705;DHT22;30431;48.520;9.046;2024-02-26T12:17:23;15.60;69.30
44705;DHT22;30431;48.520;9.046;2024-02-26T12:19:53;15.40;70.50
44705;DHT22;30431;48.520;9.046;2024-02-26T12:22:21;15.40;71.20
44705;DHT22;30431;48.520;9.046;2024-02-26T12:24:59;15.50;70.10
44705;DHT22;30431;48.520;9.046;2024-02-26T12:27:27;15.50;71.30
44705;DHT22;30431;48.520;9.046;2024-02-26T12:29:57;15.60;70.10
44705;DHT22;30431;48.520;9.046;2024-02-26T12:32:24;15.50;69.60
44705;DHT22;30431;48.520;9.046;2024-02-26T12:34:51;15.70;69.60
44705;DHT22;30431;48.520;9.046;2024-02-26T12:37:18;15.80;69.50
44705;DHT22;30431;48.520;9.046;2024-02-26T12:39:46;15.50;70.70
44705;DHT22;30431;48.520;9.046;2024-02-26T12:42:16;15.10;69.80
44705;DHT22;30431;48.520;9.046;2024-02-26T12:44:45;15.30;70.70
44705;DHT22;30431;48.520;9.046;2024-02-26T12:47:12;15.50;70.10
44705;DHT22;30431;48.520;9.046;2024-02-26T12:49:43;15.50;68.60
44705;DHT22;30431;48.520;9.046;2024-02-26T12:52:13;15.40;69.80
44705;DHT22;30431;48.520;9.046;2024-02-26T12:54:40;15.40;71.40
44705;DHT22;30431;48.520;9.046;2024-02-26T12:57:09;15.40;70.30
44705;DHT22;30431;48.520;9.046;2024-02-26T12:59:37;15.40;72.00
44705;DHT22;30431;48.520;9.046;2024-02-26T13:02:07;15.50;71.00
44705;DHT22;30431;48.520;9.046;2024-02-26T13:04:34;15.70;69.40
44705;DHT22;30431;48.520;9.046;2024-02-26T13:07:04;15.80;69.60
44705;DHT22;30431;48.520;9.046;2024-02-26T13:09:35;15.70;69.50
44705;DHT22;30431;48.520;9.046;2024-02-26T13:12:04;15.80;69.30
44705;DHT22;30431;48.520;9.046;2024-02-26T13:14:35;15.90;68.70
44705;DHT22;30431;48.520;9.046;2024-02-26T13:17:03;15.90;68.60
44705;DHT22;30431;48.520;9.046;2024-02-26T13:19:30;15.90;69.60
44705;DHT22;30431;48.520;9.046;2024-02-26T13:22:06;15.60;68.90
44705;DHT22;30431;48.520;9.046;2024-02-26T13:24:34;15.60;69.70
44705;DHT22;30431;48.520;9.046;2024-02-26T13:27:02;15.70;69.60
44705;DHT22;30431;48.520;9.046;2024-02-26T13:29:31;15.70;68.40
44705;DHT22;30431;48.520;9.046;2024-02-26T13:31:58;15.50;68.80
44705;DHT22;30431;48.520;9.046;2024-02-26T13:34:29;15.50;70.60
44705;DHT22;30431;48.520;9.046;2024-02-26T13:37:00;15.70;70.40
44705;DHT22;30431;48.520;9.046;2024-02-26T13:39:28;15.60;70.40
44705;DHT22;30431;48.520;9.046;2024-02-26T13:41:57;15.70;69.90
44705;DHT22;30431;48.520;9.046;2024-02-26T13:44:27;15.80;69.70
44705;DHT22;30431;48.520;9.046;2024-02-26T13:46:56;15.90;70.70
44705;DHT22;30431;48.520;9.046;2024-02-26T13:49:26;16.00;70.70
44705;DHT22;30431;48.520;9.046;2024-02-26T13:51:53;16.00;70.10
44705;DHT22;30431;48.520;9.046;2024-02-26T13:54:22;16.00;70.40
44705;DHT22;30431;48.520;9.046;2024-02-26T13:56:49;15.70;69.30
44705;DHT22;30431;48.520;9.046;2024-02-26T13:59:18;15.70;69.70
44705;DHT22;30431;48.520;9.046;2024-02-26T14:01:44;15.50;70.10
44705;DHT22;30431;48.520;9.046;2024-02-26T14:04:11;15.40;70.90
44705;DHT22;30431;48.520;9.046;2024-02-26T14:06:43;15.20;71.80
44705;DHT22;30431;48.520;9.046;2024-02-26T14:09:13;15.00;72.30
44705;DHT22;30431;48.520;9.046;2024-02-26T14:12:05;14.90;72.10
44705;DHT22;30431;48.520;9.046;2024-02-26T14:14:35;14.90;71.20
44705;DHT22;30431;48.520;9.046;2024-02-26T14:17:05;14.80;71.70
44705;DHT22;30431;48.520;9.046;2024-02-26T14:19:32;15.00;71.40
44705;DHT22;30431;48.520;9.046;2024-02-26T14:22:02;14.90;71.60
44705;DHT22;30431;48.520;9.046;2024-02-26T14:24:31;14.90;71.90
44705;DHT22;30431;48.520;9.046;2024-02-26T14:26:59;14.80;71.80
44705;DHT22;30431;48.520;9.046;2024-02-26T14:29:29;14.60;73.40
44705;DHT22;30431;48.520;9.046;2024-02-26T14:31:56;14.50;73.50
44705;DHT22;30431;48.520;9.046;2024-02-26T14:34:27;14.40;74.80
44705;DHT22;30431;48.520;9.046;2024-02-26T14:36:56;14.20;74.50
44705;DHT22;30431;48.520;9.046;2024-02-26T14:39:28;14.20;75.40
44705;DHT22;30431;48.520;9.046;2024-02-26T14:41:56;14.20;76.50
44705;DHT22;30431;48.520;9.046;2024-02-26T14:44:24;14.10;73.70
44705;DHT22;30431;48.520;9.046;2024-02-26T14:46:51;14.20;74.70
44705;DHT22;30431;48.520;9.046;2024-02-26T14:49:19;14.10;74.10
44705;DHT22;30431;48.520;9.046;2024-02-26T14:51:48;14.10;73.00
44705;DHT22;30431;48.520;9.046;2024-02-26T14:54:15;14.10;72.60
44705;DHT22;30431;48.520;9.046;2024-02-26T14:56:45;14.10;73.40
44705;DHT22;30431;48.520;9.046;2024-02-26T14:59:15;14.10;72.20
44705;DHT22;30431;48.520;9.046;2024-02-26T15:01:45;14.10;72.80
44705;DHT22;30431;48.520;9.046;2024-02-26T15:04:14;14.10;72.80
44705;DHT22;30431;48.520;9.046;2024-02-26T15:06:41;14.10;71.20
44705;DHT22;30431;48.520;9.046;2024-02-26T15:09:09;14.20;70.50
44705;DHT22;30431;48.520;9.046;2024-02-26T15:11:41;14.10;70.40
44705;DHT22;30431;48.520;9.046;2024-02-26T15:14:11;14.10;70.50
44705;DHT22;30431;48.520;9.046;2024-02-26T15:16:44;14.10;70.50
44705;DHT22;30431;48.520;9.046;2024-02-26T15:19:11;14.00;71.10
44705;DHT22;30431;48.520;9.046;2024-02-26T15:21:46;14.00;71.60
44705;DHT22;30431;48.520;9.046;2024-02-26T15:24:16;13.90;72.40
44705;DHT22;30431;48.520;9.046;2024-02-26T15:26:48;13.90;72.10
44705;DHT22;30431;48.520;9.046;2024-02-26T15:29:18;13.90;72.10
44705;DHT22;30431;48.520;9.046;2024-02-26T15:31:48;13.90;72.00
44705;DHT22;30431;48.520;9.046;2024-02-26T15:34:17;13.80;72.10
44705;DHT22;30431;48.520;9.046;2024-02-26T15:36:47;13.80;72.10
44705;DHT22;30431;48.520;9.046;2024-02-26T15:39:14;13.70;72.20
44705;DHT22;30431;48.520;9.046;2024-02-26T15:41:44;13.60;72.50
44705;DHT22;30431;48.520;9.046;2024-02-26T15:44:11;13.60;72.60
44705;DHT22;30431;48.520;9.046;2024-02-26T15:46:39;13.60;72.90
44705;DHT22;30431;48.520;9.046;2024-02-26T15:49:10;13.50;72.70
44705;DHT22;30431;48.520;9.046;2024-02-26T15:51:45;13.50;73.10
44705;DHT22;30431;48.520;9.046;2024-02-26T15:54:32;13.40;73.70
44705;DHT22;30431;48.520;9.046;2024-02-26T15:57:15;13.30;73.50
44705;DHT22;30431;48.520;9.046;2024-02-26T15:59:46;13.30;73.50
44705;DHT22;30431;48.520;9.046;2024-02-26T16:02:19;13.20;74.30